Time;durP1;ratioP1;P1;durP2;ratioP2;P2;SDS_P1;SDS_P2;PMS_P1;PMS_P2;Temp;Humidity;BMP_temperature;BMP_pressure;BME280_temperature;BME280_humidity;BME280_pressure;Samples;Min_cycle;Max_cycle;Signal;HPM_P1;HPM_P2
2023/03/05 00:01:13;;;;;;;1999.90;999.90;;;;;;;0.48;100.00;97709.91;5090598;28;20028;-76
2023/03/05 00:03:39;;;;;;;1999.90;999.90;;;;;;;0.51;100.00;97708.63;5090606;28;20101;-76
2023/03/05 00:06:04;;;;;;;1999.90;999.90;;;;;;;0.60;100.00;97704.50;5090712;28;20078;-76
2023/03/05 00:08:31;;;;;;;1999.90;999.90;;;;;;;0.55;100.00;97693.66;5090571;28;20043;-76
2023/03/05 00:10:58;;;;;;;1999.90;999.90;;;;;;;0.52;100.00;97699.50;5090317;28;20540;-76
2023/03/05 00:13:24;;;;;;;1999.90;999.90;;;;;;;0.51;100.00;97700.53;5090356;28;20036;-75
2023/03/05 00:15:49;;;;;;;1999.90;999.90;;;;;;;0.47;100.00;97699.41;5090367;28;20027;-75
2023/03/05 00:18:15;;;;;;;1999.90;999.90;;;;;;;0.48;100.00;97711.78;5089020;28;20024;-76
2023/03/05 00:20:40;;;;;;;1999.90;999.90;;;;;;;0.46;100.00;97703.13;5090342;28;20016;-76
2023/03/05 00:23:05;;;;;;;1999.90;999.90;;;;;;;0.45;100.00;97709.56;5090311;28;20060;-75
2023/03/05 00:25:34;;;;;;;1999.90;999.90;;;;;;;0.39;100.00;97708.66;5090325;28;20066;-76
2023/03/05 00:27:59;;;;;;;1999.90;999.90;;;;;;;0.41;100.00;97711.09;5090395;28;20484;-76
2023/03/05 00:30:25;;;;;;;1999.90;999.90;;;;;;;0.41;100.00;97716.47;5091222;28;20051;-76
2023/03/05 00:32:50;;;;;;;1999.90;999.90;;;;;;;0.37;100.00;97718.00;5094273;28;20479;-76
2023/03/05 00:35:16;;;;;;;1999.90;999.90;;;;;;;0.32;100.00;97717.88;5094167;28;20078;-76
2023/03/05 00:37:41;;;;;;;1999.90;999.90;;;;;;;0.39;100.00;97719.41;5094839;28;20024;-76
2023/03/05 00:40:07;;;;;;;1999.90;999.90;;;;;;;0.29;100.00;97719.19;5093844;28;20081;-76
2023/03/05 00:42:37;;;;;;;1999.90;999.90;;;;;;;0.16;100.00;97707.88;5093926;28;20066;-76
2023/03/05 00:45:06;;;;;;;1999.90;999.90;;;;;;;0.27;100.00;97715.09;5093916;28;20016;-76
2023/03/05 00:47:32;;;;;;;1999.90;999.90;;;;;;;0.22;100.00;97709.63;5093901;28;20039;-76
2023/03/05 00:49:57;;;;;;;1999.90;999.90;;;;;;;0.26;100.00;97724.22;5094012;28;20036;-73
2023/03/05 00:52:23;;;;;;;1999.90;999.90;;;;;;;0.21;100.00;97716.03;5093912;28;20024;-75
2023/03/05 00:54:48;;;;;;;1999.90;999.90;;;;;;;0.18;100.00;97724.56;5093761;28;20054;-76
2023/03/05 00:57:14;;;;;;;1999.90;999.90;;;;;;;0.16;100.00;97707.88;5093886;28;20510;-76
2023/03/05 00:59:39;;;;;;;1999.90;999.90;;;;;;;0.16;100.00;97718.63;5093561;28;20166;-76
2023/03/05 01:02:04;;;;;;;1999.90;999.90;;;;;;;0.18;100.00;97722.72;5093785;28;20373;-76
2023/03/05 01:04:30;;;;;;;1999.90;999.90;;;;;;;0.24;100.00;97729.84;5093758;28;20399;-76
2023/03/05 01:06:55;;;;;;;1999.90;999.90;;;;;;;0.22;100.00;97723.06;5093933;28;20396;-77
2023/03/05 01:09:24;;;;;;;1999.90;999.90;;;;;;;0.16;100.00;97721.31;5093605;28;20079;-77
2023/03/05 01:11:50;;;;;;;1999.90;999.90;;;;;;;0.18;100.00;97722.72;5093532;28;20162;-76
2023/03/05 01:14:19;;;;;;;1999.90;999.90;;;;;;;0.25;100.00;97722.59;5093602;28;20472;-76
2023/03/05 01:16:44;;;;;;;1999.90;999.90;;;;;;;0.07;100.00;97715.44;5093701;28;20032;-76
2023/03/05 01:19:11;;;;;;;1999.90;999.90;;;;;;;0.10;100.00;97719.53;5093567;28;20016;-76
2023/03/05 01:21:36;;;;;;;1999.90;999.90;;;;;;;0.10;100.00;97714.97;5093172;28;20020;-77
2023/03/05 01:24:03;;;;;;;1999.90;999.90;;;;;;;0.04;100.00;97715.91;5089705;28;20036;-75
2023/03/05 01:26:29;;;;;;;1999.90;999.90;;;;;;;0.12;100.00;97712.06;5072867;28;20025;-72
2023/03/05 01:28:54;;;;;;;1999.90;999.90;;;;;;;0.12;100.00;97714.75;5072862;28;20019;-76
2023/03/05 01:31:20;;;;;;;1999.90;999.90;;;;;;;0.14;100.00;97710.78;5072871;28;20032;-75
2023/03/05 01:33:45;;;;;;;1999.90;999.90;;;;;;;-0.02;100.00;97711.47;5073159;28;20032;-76
2023/03/05 01:36:14;;;;;;;1999.90;999.90;;;;;;;-0.05;100.00;97712.78;5071797;28;20029;-76
2023/03/05 01:38:45;;;;;;;1999.90;999.90;;;;;;;-0.10;100.00;97719.91;5074929;28;20151;-76
2023/03/05 01:41:13;;;;;;;1999.90;999.90;;;;;;;-0.05;100.00;97710.09;5075123;28;20029;-75
2023/03/05 01:43:39;;;;;;;1999.90;999.90;;;;;;;0.08;100.00;97713.59;5071566;28;20504;-75
2023/03/05 01:46:16;;;;;;;1999.90;999.90;;;;;;;0.16;100.00;97713.25;5072931;28;20019;-75
2023/03/05 01:48:46;;;;;;;1999.90;999.90;;;;;;;0.16;100.00;97713.25;5072444;28;20028;-74
2023/03/05 01:51:12;;;;;;;1999.90;999.90;;;;;;;0.10;100.00;97716.84;5071035;28;20024;-75
2023/03/05 01:53:37;;;;;;;1999.90;999.90;;;;;;;0.07;100.00;97722.69;5072566;28;20465;-75
2023/03/05 01:56:03;;;;;;;1999.90;999.90;;;;;;;-0.01;100.00;97716.66;5072708;28;20070;-74
2023/03/05 01:58:28;;;;;;;1999.90;999.90;;;;;;;-0.11;100.00;97707.50;5072321;28;20074;-75
2023/03/05 02:00:54;;;;;;;1999.90;999.90;;;;;;;-0.14;100.00;97700.75;5072423;28;20358;-74
2023/03/05 02:03:22;;;;;;;1999.90;999.90;;;;;;;-0.18;100.00;97707.63;5072161;28;20123;-74
2023/03/05 02:05:47;;;;;;;1999.90;999.90;;;;;;;-0.21;100.00;97707.28;5072247;28;20028;-75
2023/03/05 02:08:20;;;;;;;1999.90;999.90;;;;;;;-0.21;100.00;97708.09;5071164;28;20045;-74
2023/03/05 02:10:49;;;;;;;1999.90;999.90;;;;;;;-0.38;100.00;97707.16;5072407;28;20031;-75
2023/03/05 02:13:24;;;;;;;1999.90;999.90;;;;;;;-0.44;100.00;97707.25;5072381;28;20589;-75
2023/03/05 02:15:51;;;;;;;;;;;;;;;-0.47;100.00;97708.53;5071214;28;20033;-73
2023/03/05 02:18:18;;;;;;;1999.90;999.90;;;;;;;-0.45;100.00;97713.69;5071987;28;19917;-73
2023/03/05 02:20:56;;;;;;;1999.90;999.90;;;;;;;-0.27;100.00;97714.41;5071895;28;20046;-75
2023/03/05 02:23:29;;;;;;;1999.90;999.90;;;;;;;-0.41;100.00;97709.50;5070509;28;20392;-74
2023/03/05 02:25:56;;;;;;;1999.90;999.90;;;;;;;-0.43;100.00;97715.06;5070169;28;20071;-75
2023/03/05 02:28:24;;;;;;;1999.90;999.90;;;;;;;-0.34;100.00;97713.69;5071770;28;20499;-75
2023/03/05 02:30:49;;;;;;;1999.90;999.90;;;;;;;-0.36;100.00;97715.78;5071867;28;20389;-74
2023/03/05 02:33:16;;;;;;;1999.90;999.90;;;;;;;-0.37;100.00;97724.06;5071716;28;20024;-74
2023/03/05 02:35:42;;;;;;;1999.90;999.90;;;;;;;-0.45;100.00;97709.13;5071704;28;20032;-74
2023/03/05 02:38:08;;;;;;;1999.90;999.90;;;;;;;-0.46;100.00;97726.28;5072160;28;20500;-75
2023/03/05 02:40:34;;;;;;;1999.90;999.90;;;;;;;-0.53;100.00;97730.94;5071347;28;20039;-74
2023/03/05 02:42:59;;;;;;;1999.90;999.90;;;;;;;-0.52;100.00;97726.38;5071292;28;20037;-74
2023/03/05 02:45:25;;;;;;;1999.90;999.90;;;;;;;-0.56;100.00;97726.03;5071608;28;20017;-74
2023/03/05 02:47:50;;;;;;;1999.90;999.90;;;;;;;-0.51;100.00;97734.22;5071615;28;20103;-75
2023/03/05 02:50:15;;;;;;;1999.90;999.90;;;;;;;-0.41;100.00;97731.81;5071424;28;20477;-74
2023/03/05 02:52:41;;;;;;;1999.90;999.90;;;;;;;-0.47;100.00;97723.84;5071294;28;20148;-75
2023/03/05 02:55:07;;;;;;;1999.90;999.90;;;;;;;-0.52;100.00;97732.56;5071007;28;20039;-74
2023/03/05 02:57:32;;;;;;;1999.90;999.90;;;;;;;-0.44;100.00;97729.56;5071103;28;20020;-74
2023/03/05 02:59:58;;;;;;;1999.90;999.90;;;;;;;-0.53;100.00;97739.00;5071182;28;20031;-75
2023/03/05 03:02:23;;;;;;;1999.90;999.90;;;;;;;-0.52;100.00;97726.38;5071094;28;20033;-74
2023/03/05 03:04:49;;;;;;;1999.90;999.90;;;;;;;-0.52;100.00;97732.56;5088592;28;20039;-75
2023/03/05 03:07:15;;;;;;;1999.90;999.90;;;;;;;-0.53;100.00;97730.94;5091441;28;20028;-75
2023/03/05 03:09:41;;;;;;;1999.90;999.90;;;;;;;-0.37;100.00;97729.44;5091543;28;20539;-74
2023/03/05 03:12:08;;;;;;;1999.90;999.90;;;;;;;-0.37;100.00;97735.63;5091267;28;20472;-74
2023/03/05 03:14:38;;;;;;;1999.90;999.90;;;;;;;-0.40;100.00;97730.72;5091096;28;20051;-75
2023/03/05 03:17:08;;;;;;;1999.90;999.90;;;;;;;-0.48;100.00;97728.38;5091136;28;20066;-74
2023/03/05 03:19:35;;;;;;;1999.90;999.90;;;;;;;-0.51;100.00;97736.91;5089763;28;20035;-75
2023/03/05 03:22:00;;;;;;;1999.90;999.90;;;;;;;-0.57;100.00;97724.41;5091799;28;20043;-74
2023/03/05 03:24:26;;;;;;;1999.90;999.90;;;;;;;-0.55;100.00;97725.81;5091078;28;20032;-74
2023/03/05 03:26:51;;;;;;;1999.90;999.90;;;;;;;-0.56;100.00;97723.34;5091085;28;20031;-75
2023/03/05 03:29:17;;;;;;;1999.90;999.90;;;;;;;-0.46;100.00;97730.84;5090937;28;20056;-75
2023/03/05 03:31:44;;;;;;;1999.90;999.90;;;;;;;-0.42;100.00;97730.16;5090855;28;20024;-74
2023/03/05 03:34:14;;;;;;;1999.90;999.90;;;;;;;-0.57;100.00;97727.09;5090798;28;20039;-74
2023/03/05 03:36:40;;;;;;;1999.90;999.90;;;;;;;-0.53;100.00;97730.13;5090848;28;20028;-75
2023/03/05 03:39:08;;;;;;;1999.90;999.90;;;;;;;-0.56;100.00;97728.72;5091190;28;20062;-75
2023/03/05 03:41:34;;;;;;;1999.90;999.90;;;;;;;-0.62;100.00;97743.06;5091100;28;20028;-74
2023/03/05 03:44:01;;;;;;;1999.90;999.90;;;;;;;-0.58;100.00;97737.00;5091508;28;20024;-73
2023/03/05 03:46:27;;;;;;;1999.90;999.90;;;;;;;-0.56;100.00;97736.75;5091930;28;20468;-75
2023/03/05 03:48:52;;;;;;;1999.90;999.90;;;;;;;-0.54;100.00;97745.44;5092597;28;20111;-75
2023/03/05 03:51:18;;;;;;;1999.90;999.90;;;;;;;-0.66;100.00;97741.91;5092764;28;20020;-75
2023/03/05 03:53:43;;;;;;;1999.90;999.90;;;;;;;-0.78;100.00;97739.16;5094056;28;20024;-75
2023/03/05 03:56:08;;;;;;;1999.90;999.90;;;;;;;-0.73;100.00;97751.91;5091615;28;20389;-75
2023/03/05 03:58:34;;;;;;;1999.90;999.90;;;;;;;-0.76;100.00;97747.00;5090820;28;20077;-73
2023/03/05 04:01:00;;;;;;;1999.90;999.90;;;;;;;-0.71;100.00;97753.31;5090973;28;20487;-74
2023/03/05 04:03:25;;;;;;;1999.90;999.90;;;;;;;-0.83;100.00;97743.56;5090804;28;20393;-73
2023/03/05 04:05:50;;;;;;;1999.90;999.90;;;;;;;-0.81;100.00;97738.78;5092465;28;20099;-73
2023/03/05 04:08:16;;;;;;;1999.90;999.90;;;;;;;-0.79;100.00;97744.78;5095018;28;20520;-73
2023/03/05 04:10:41;;;;;;;1999.90;999.90;;;;;;;-0.76;100.00;97758.56;5094270;28;20016;-73
2023/03/05 04:13:07;;;;;;;1999.90;999.90;;;;;;;-0.73;100.00;97752.72;5095366;28;20490;-74
2023/03/05 04:15:33;;;;;;;1999.90;999.90;;;;;;;-0.73;100.00;97754.59;5095386;28;20020;-74
2023/03/05 04:17:58;;;;;;;1999.90;999.90;;;;;;;-0.71;100.00;97757.84;5093891;28;20042;-74
2023/03/05 04:20:24;;;;;;;1999.90;999.90;;;;;;;-0.86;100.00;97742.19;5095180;28;20085;-75
2023/03/05 04:22:49;;;;;;;1999.90;999.90;;;;;;;-0.79;100.00;97748.28;5094622;28;20468;-74
2023/03/05 04:25:14;;;;;;;1999.90;999.90;;;;;;;-0.85;100.00;97759.09;5094906;28;20042;-74
2023/03/05 04:27:40;;;;;;;1999.90;999.90;;;;;;;-0.88;100.00;97767.63;5087063;28;20020;-74
2023/03/05 04:30:07;;;;;;;1999.90;999.90;;;;;;;-0.87;100.00;97763.88;5074769;28;20067;-76
2023/03/05 04:32:33;;;;;;;1999.90;999.90;;;;;;;-0.86;100.00;97758.28;5082689;28;20043;-74
2023/03/05 04:34:58;;;;;;;1999.90;999.90;;;;;;;-0.83;100.00;97767.75;5095194;28;20428;-75
2023/03/05 04:37:25;;;;;;;1999.90;999.90;;;;;;;-0.66;100.00;97766.06;5098195;28;20388;-78
2023/03/05 04:39:51;;;;;;;1999.90;999.90;;;;;;;-0.63;100.00;97762.91;5099789;28;20028;-76
2023/03/05 04:42:18;;;;;;;1999.90;999.90;;;;;;;-0.57;100.00;97773.56;5098707;28;20511;-76
2023/03/05 04:44:44;;;;;;;1999.90;999.90;;;;;;;-0.44;100.00;97769.88;5087241;28;20109;-76
2023/03/05 04:47:10;;;;;;;1999.90;999.90;;;;;;;-0.59;100.00;97758.72;5074337;28;20055;-76
2023/03/05 04:49:35;;;;;;;1999.90;999.90;;;;;;;-0.55;100.00;97760.72;5074413;28;20498;-76
2023/03/05 04:52:00;;;;;;;1999.90;999.90;;;;;;;-0.51;100.00;97771.81;5073378;28;20047;-76
2023/03/05 04:54:27;;;;;;;1999.90;999.90;;;;;;;-0.49;100.00;97768.91;5073222;28;20024;-76
2023/03/05 04:56:52;;;;;;;1999.90;999.90;;;;;;;-0.61;100.00;97763.50;5073632;28;20028;-78
2023/03/05 04:59:17;;;;;;;1999.90;999.90;;;;;;;-0.52;100.00;97767.50;5073574;28;20015;-76
2023/03/05 05:01:43;;;;;;;1999.90;999.90;;;;;;;-0.56;100.00;97774.34;5073301;28;20032;-76
2023/03/05 05:04:08;;;;;;;1999.90;999.90;;;;;;;-0.51;100.00;97763.78;5073149;28;20020;-76
2023/03/05 05:06:34;;;;;;;1999.90;999.90;;;;;;;-0.49;100.00;97766.22;5072912;28;20025;-75
2023/03/05 05:08:59;;;;;;;1999.90;999.90;;;;;;;-0.55;100.00;97770.63;5072836;28;20060;-75
2023/03/05 05:11:25;;;;;;;1999.90;999.90;;;;;;;-0.53;100.00;97763.16;5086515;28;20058;-75
2023/03/05 05:13:50;;;;;;;1999.90;999.90;;;;;;;-0.44;100.00;97772.56;5097570;28;20052;-74
2023/03/05 05:16:15;;;;;;;1999.90;999.90;;;;;;;-0.38;100.00;97768.94;5110953;27;20464;-74
2023/03/05 05:18:41;;;;;;;1999.90;999.90;;;;;;;-0.49;100.00;97767.03;5107650;28;20036;-75
2023/03/05 05:21:08;;;;;;;1999.90;999.90;;;;;;;-0.43;100.00;97774.16;5092859;28;20111;-75
2023/03/05 05:23:34;;;;;;;1999.90;999.90;;;;;;;-0.39;100.00;97775.34;5091317;28;20043;-75
2023/03/05 05:26:01;;;;;;;1999.90;999.90;;;;;;;-0.33;100.00;97773.59;5090887;28;20024;-75
2023/03/05 05:28:27;;;;;;;1999.90;999.90;;;;;;;-0.45;100.00;97781.66;5092981;28;20446;-75
2023/03/05 05:30:53;;;;;;;1999.90;999.90;;;;;;;-0.41;100.00;97776.66;5093035;28;20024;-75
2023/03/05 05:33:18;;;;;;;1999.90;999.90;;;;;;;-0.45;100.00;97783.50;5092829;28;20024;-75
2023/03/05 05:35:44;;;;;;;1999.90;999.90;;;;;;;-0.56;100.00;97785.94;5092950;28;20071;-76
2023/03/05 05:38:09;;;;;;;1999.90;999.90;;;;;;;-0.54;100.00;97783.03;5091404;28;20034;-76
2023/03/05 05:40:34;;;;;;;1999.90;999.90;;;;;;;-0.40;100.00;97789.00;5093147;28;20492;-74
2023/03/05 05:43:00;;;;;;;1999.90;999.90;;;;;;;-0.36;100.00;97785.63;5092768;28;20035;-75
2023/03/05 05:45:25;;;;;;;1999.90;999.90;;;;;;;-0.44;100.00;97798.59;5092510;28;20062;-74
2023/03/05 05:47:51;;;;;;;1999.90;999.90;;;;;;;-0.47;100.00;97796.38;5092696;28;20542;-76
2023/03/05 05:50:18;;;;;;;1999.90;999.90;;;;;;;-0.52;100.00;97774.72;5092676;28;20074;-76
2023/03/05 05:52:44;;;;;;;1999.90;999.90;;;;;;;-0.34;100.00;97794.28;5092390;28;20368;-74
2023/03/05 05:55:10;;;;;;;1999.90;999.90;;;;;;;-0.36;100.00;97804.44;5092579;28;20031;-75
2023/03/05 05:57:35;;;;;;;1999.90;999.90;;;;;;;-0.24;100.00;97802.59;5093003;28;20093;-75
2023/03/05 06:00:03;;;;;;;1999.90;999.90;;;;;;;-0.22;100.00;97795.13;5094662;28;20480;-76
2023/03/05 06:02:29;;;;;;;1999.90;999.90;;;;;;;-0.11;100.00;97807.78;5096218;28;20024;-75
2023/03/05 06:04:55;;;;;;;1999.90;999.90;;;;;;;-0.03;100.00;97798.53;5092654;28;20031;-75
2023/03/05 06:07:21;;;;;;;1999.90;999.90;;;;;;;-0.13;100.00;97796.44;5092385;28;20024;-75
2023/03/05 06:09:47;;;;;;;1999.90;999.90;;;;;;;-0.07;100.00;97800.91;5092644;28;20043;-75
2023/03/05 06:12:12;;;;;;;1999.90;999.90;;;;;;;0.02;100.00;97805.91;5092564;28;20032;-75
2023/03/05 06:14:38;;;;;;;1999.90;999.90;;;;;;;0.11;100.00;97805.34;5093928;28;20028;-74
2023/03/05 06:17:03;;;;;;;1999.90;999.90;;;;;;;0.10;100.00;97803.69;5092542;28;20020;-75
2023/03/05 06:19:28;;;;;;;1999.90;999.90;;;;;;;0.20;100.00;97805.81;5092246;28;20036;-76
2023/03/05 06:21:54;;;;;;;1999.90;999.90;;;;;;;0.22;100.00;97803.72;5089284;28;20024;-76
2023/03/05 06:24:19;;;;;;;1999.90;999.90;;;;;;;0.22;100.00;97803.72;5081830;28;20028;-76
2023/03/05 06:26:45;;;;;;;1999.90;999.90;;;;;;;0.36;100.00;97810.50;5091854;28;20028;-76
2023/03/05 06:29:11;;;;;;;1999.90;999.90;;;;;;;0.42;100.00;97812.25;5082635;28;20077;-77
2023/03/05 06:31:37;;;;;;;1999.90;999.90;;;;;;;0.44;100.00;97804.75;5091798;28;20028;-76
2023/03/05 06:34:03;;;;;;;1999.90;999.90;;;;;;;0.46;100.00;97808.88;5091894;28;20020;-75
2023/03/05 06:36:29;;;;;;;1999.90;999.90;;;;;;;0.51;100.00;97810.84;5091558;28;20081;-75
2023/03/05 06:38:56;;;;;;;1999.90;999.90;;;;;;;0.49;100.00;97811.09;5091550;28;20123;-75
2023/03/05 06:41:25;;;;;;;1999.90;999.90;;;;;;;0.56;100.00;97810.16;5075834;28;20025;-76
2023/03/05 06:43:51;;;;;;;1999.90;999.90;;;;;;;0.65;100.00;97809.56;5071516;28;20055;-76
2023/03/05 06:46:24;;;;;;;1999.90;999.90;;;;;;;0.67;100.00;97814.69;5071342;28;20476;-76
2023/03/05 06:48:50;;;;;;;1999.90;999.90;;;;;;;0.73;100.00;97811.06;5071324;28;20025;-75
2023/03/05 06:51:25;;;;;;;1999.90;999.90;;;;;;;0.82;100.00;97812.31;5071165;28;20074;-75
2023/03/05 06:53:51;;;;;;;1999.90;999.90;;;;;;;0.88;100.00;97814.88;5069684;28;20056;-75
2023/03/05 06:56:18;;;;;;;1999.90;999.90;;;;;;;0.86;100.00;97822.41;5071141;28;20066;-79
2023/03/05 06:58:46;;;;;;;1999.90;999.90;;;;;;;0.81;100.00;97811.53;5072345;28;20039;-76
2023/03/05 07:01:13;;;;;;;1999.90;999.90;;;;;;;0.89;100.00;97815.72;5070689;28;20412;-75
2023/03/05 07:03:39;;;;;;;1999.90;999.90;;;;;;;0.91;100.00;97817.09;5070428;28;20366;-76
2023/03/05 07:06:07;;;;;;;1999.90;999.90;;;;;;;0.97;100.00;97821.53;5071436;28;20050;-76
2023/03/05 07:08:33;;;;;;;1999.90;999.90;;;;;;;1.17;100.00;97820.31;5072703;28;20044;-77
2023/03/05 07:11:00;;;;;;;1999.90;999.90;;;;;;;1.19;100.00;97821.72;5073934;28;20100;-76
2023/03/05 07:13:27;;;;;;;1999.90;999.90;;;;;;;1.20;100.00;97811.78;5073147;28;20016;-76
2023/03/05 07:15:53;;;;;;;1999.90;999.90;;;;;;;1.20;100.00;97815.28;5075268;28;20028;-75
2023/03/05 07:18:19;;;;;;;1999.90;999.90;;;;;;;1.26;100.00;97816.19;5081878;28;20032;-75
2023/03/05 07:20:44;;;;;;;1999.90;999.90;;;;;;;1.24;100.00;97821.00;5086475;28;20035;-75
2023/03/05 07:23:10;;;;;;;1999.90;999.90;;;;;;;1.23;100.00;97822.06;5089150;28;20043;-75
2023/03/05 07:25:36;;;;;;;1999.90;999.90;;;;;;;1.30;100.00;97818.19;5071289;28;20038;-78
2023/03/05 07:28:04;;;;;;;1999.90;999.90;;;;;;;1.34;100.00;97802.38;5071064;28;20021;-76
2023/03/05 07:30:30;;;;;;;1999.90;999.90;;;;;;;1.51;100.00;97824.78;5075385;28;20035;-76
2023/03/05 07:32:55;;;;;;;1999.90;999.90;;;;;;;1.44;100.00;97813.34;5091019;28;20024;-78
2023/03/05 07:35:21;;;;;;;1999.90;999.90;;;;;;;1.50;100.00;97815.06;5090406;28;20039;-76
2023/03/05 07:37:46;;;;;;;1999.90;999.90;;;;;;;1.55;100.00;97809.75;5079803;28;20024;-75
2023/03/05 07:40:11;;;;;;;1999.90;999.90;;;;;;;1.71;100.00;97811.69;5091052;28;20024;-77
2023/03/05 07:42:37;;;;;;;1999.90;999.90;;;;;;;1.74;100.00;97811.19;5080131;28;20025;-75
2023/03/05 07:45:02;;;;;;;1999.90;999.90;;;;;;;1.77;100.00;97813.41;5070347;28;20021;-77
2023/03/05 07:47:29;;;;;;;1999.90;999.90;;;;;;;1.78;100.00;97815.06;5069786;28;20032;-75
2023/03/05 07:49:54;;;;;;;1999.90;999.90;;;;;;;1.88;100.00;97806.31;5070034;28;20021;-76
2023/03/05 07:52:20;;;;;;;1999.90;999.90;;;;;;;2.08;100.00;97810.16;5070323;28;20094;-75
2023/03/05 07:54:45;;;;;;;1999.90;999.90;;;;;;;2.24;100.00;97819.31;5080644;28;20030;-75
2023/03/05 07:57:13;;;;;;;1999.90;999.90;;;;;;;2.33;100.00;97822.44;5090028;28;20030;-76
2023/03/05 07:59:39;;;;;;;1999.90;999.90;;;;;;;2.30;100.00;97818.34;5090318;28;20032;-79
2023/03/05 08:02:05;;;;;;;1999.90;999.90;;;;;;;2.52;100.00;97815.72;5090180;28;20055;-79
2023/03/05 08:04:32;;;;;;;1999.90;999.90;;;;;;;2.58;100.00;97820.94;5090233;28;20106;-78
2023/03/05 08:06:59;;;;;;;1999.90;999.90;;;;;;;2.61;100.00;97820.44;5091256;28;20028;-83
2023/03/05 08:09:24;;;;;;;1999.90;999.90;;;;;;;2.68;100.00;97814.88;5091909;28;20039;-85
2023/03/05 08:11:50;;;;;;;1999.90;999.90;;;;;;;2.74;100.00;97824.69;5097067;28;20036;-81
2023/03/05 08:14:15;;;;;;;1999.90;999.90;;;;;;;2.72;100.00;97813.31;5092895;28;20035;-81
2023/03/05 08:16:40;;;;;;;1999.90;999.90;;;;;;;2.73;100.00;97814.94;5090326;28;20043;-80
2023/03/05 08:19:07;;;;;;;1999.90;999.90;;;;;;;2.77;100.00;97812.56;5095350;28;20035;-82
2023/03/05 08:21:34;;;;;;;1999.90;999.90;;;;;;;2.86;100.00;97816.47;5096271;28;20097;-79
2023/03/05 08:24:05;;;;;;;1999.90;999.90;;;;;;;2.98;100.00;97820.69;5090919;28;20063;-80
2023/03/05 08:26:32;;;;;;;1999.90;999.90;;;;;;;3.00;100.00;97821.28;5110696;28;20027;-82
2023/03/05 08:28:58;;;;;;;1999.90;999.90;;;;;;;3.08;100.00;97815.41;5110618;28;20046;-78
2023/03/05 08:31:26;;;;;;;1999.90;999.90;;;;;;;3.15;100.00;97821.47;5099212;28;20088;-83
2023/03/05 08:33:53;;;;;;;1999.90;999.90;;;;;;;3.30;100.00;97817.28;5090986;28;20032;-81
2023/03/05 08:36:19;;;;;;;1999.90;999.90;;;;;;;3.39;100.00;97821.19;5092322;28;20031;-79
2023/03/05 08:38:45;;;;;;;1999.90;999.90;;;;;;;3.46;100.00;97811.00;5110705;28;20023;-82
2023/03/05 08:41:11;;;;;;;1999.90;999.90;;;;;;;3.63;100.00;97828.75;5106841;28;20139;-81
2023/03/05 08:43:37;;;;;;;1999.90;999.90;;;;;;;3.73;100.00;97822.66;5094481;28;20024;-84
2023/03/05 08:46:03;;;;;;;1999.90;999.90;;;;;;;3.91;100.00;97819.59;5089840;28;20027;-81
2023/03/05 08:48:30;;;;;;;1999.90;999.90;;;;;;;4.14;100.00;97819.25;5087597;28;20028;-84
2023/03/05 08:50:56;;;;;;;1999.90;999.90;;;;;;;4.20;100.00;97820.94;5090014;28;20028;-78
2023/03/05 08:53:21;;;;;;;1999.90;999.90;;;;;;;4.33;100.00;97820.50;5093679;28;20490;-81
2023/03/05 08:55:54;;;;;;;1999.90;999.90;;;;;;;4.47;100.00;97820.91;5093771;28;20036;-81
2023/03/05 08:58:20;;;;;;;1999.90;999.90;;;;;;;4.43;100.00;97805.41;5093104;28;20089;-78
2023/03/05 09:00:45;;;;;;;1999.90;999.90;;;;;;;4.54;100.00;97817.97;5093301;28;20111;-79
2023/03/05 09:03:11;;;;;;;1999.90;999.90;;;;;;;4.53;100.00;97819.03;5093120;28;20031;-79
2023/03/05 09:05:36;;;;;;;1999.90;999.90;;;;;;;4.62;100.00;97814.75;5094981;28;20032;-79
2023/03/05 09:08:01;;;;;;;1999.90;999.90;;;;;;;4.57;100.00;97817.44;5093009;28;20028;-77
2023/03/05 09:10:27;;;;;;;1999.90;999.90;;;;;;;4.34;100.00;97802.38;5092759;28;20032;-80
2023/03/05 09:12:52;;;;;;;1999.90;999.90;;;;;;;4.44;100.00;97809.75;5095129;28;20468;-78
2023/03/05 09:15:18;;;;;;;1999.90;999.90;;;;;;;4.45;100.00;97808.69;5093031;28;20111;-79
2023/03/05 09:17:43;;;;;;;1999.90;999.90;;;;;;;4.57;100.00;97807.44;5092406;28;20035;-78
2023/03/05 09:20:10;;;;;;;1999.90;999.90;;;;;;;4.75;100.00;97808.91;5092805;28;20387;-77
2023/03/05 09:22:36;;;;;;;1999.90;999.90;;;;;;;4.96;100.00;97802.50;5092187;28;20036;-83
2023/03/05 09:25:01;;;;;;;1999.90;999.90;;;;;;;4.95;100.00;97803.56;5092821;28;20023;-76
2023/03/05 09:27:27;;;;;;;1999.90;999.90;;;;;;;5.01;100.00;97805.22;5092471;28;20050;-78
2023/03/05 09:29:52;;;;;;;1999.90;999.90;;;;;;;5.05;100.00;97803.63;5090923;28;20024;-78
2023/03/05 09:32:17;;;;;;;1999.90;999.90;;;;;;;5.08;100.00;97797.69;5091257;28;20046;-77
2023/03/05 09:34:43;;;;;;;1999.90;999.90;;;;;;;5.20;100.00;97795.56;5090989;28;20017;-79
2023/03/05 09:37:08;;;;;;;1999.90;999.90;;;;;;;5.40;100.00;97790.22;5091517;28;20472;-80
2023/03/05 09:39:34;;;;;;;1999.90;999.90;;;;;;;5.40;100.00;97790.22;5091854;28;20109;-77
2023/03/05 09:42:26;;;;;;;1999.90;999.90;;;;;;;5.40;100.00;97795.66;5092048;28;20024;-77
2023/03/05 09:45:21;;;;;;;1999.90;999.90;;;;;;;5.59;100.00;97796.00;5087559;28;20039;-79
2023/03/05 09:48:04;;;;;;;1999.90;999.90;;;;;;;5.76;100.00;97787.63;5085008;28;20039;-77
2023/03/05 09:50:42;;;;;;;1999.90;999.90;;;;;;;6.45;100.00;97790.69;5092220;28;20119;-77
2023/03/05 09:53:27;;;;;;;1999.90;999.90;;;;;;;6.50;100.00;97782.53;5090896;28;20020;-78
2023/03/05 09:55:54;;;;;;;1999.90;999.90;;;;;;;7.36;100.00;97788.53;5092028;28;20020;-80
2023/03/05 09:58:39;;;;;;;1999.90;999.90;;;;;;;7.73;100.00;97788.09;5092877;28;20043;-77
2023/03/05 10:01:16;;;;;;;1999.90;999.90;;;;;;;7.75;100.00;97790.53;5093326;28;20542;-79
2023/03/05 10:04:02;;;;;;;1999.90;999.90;;;;;;;7.79;100.00;97780.72;5095717;28;20051;-91
2023/03/05 10:06:54;;;;;;;1999.90;999.90;;;;;;;7.72;100.00;97778.28;5102038;28;20047;-83
2023/03/05 10:09:29;;;;;;;1999.90;999.90;;;;;;;7.55;100.00;97773.22;5106226;28;20059;-92
2023/03/05 10:12:19;;;;;;;1999.90;999.90;;;;;;;7.77;96.14;97774.75;5100118;28;20627;-86
2023/03/05 10:14:45;;;;;;;1999.90;999.90;;;;;;;7.67;92.42;97745.66;5085821;28;20063;-87
2023/03/05 10:17:35;;;;;;;1999.90;999.90;;;;;;;8.81;89.29;97759.72;5102763;28;20024;-88
2023/03/05 10:20:22;;;;;;;1999.90;999.90;;;;;;;9.06;85.40;97759.44;5083096;28;20032;-89
2023/03/05 10:23:03;;;;;;;1999.90;999.90;;;;;;;9.06;83.08;97756.72;5084436;28;20115;-85
2023/03/05 10:25:58;;;;;;;1999.90;999.90;;;;;;;9.12;82.75;97752.81;5080904;28;20030;-91
2023/03/05 10:28:34;;;;;;;1999.90;999.90;;;;;;;10.07;78.97;97747.16;5084233;28;20054;-84
2023/03/05 10:31:23;;;;;;;1999.90;999.90;;;;;;;11.17;70.96;97760.84;5100782;28;20127;-91
2023/03/05 10:34:21;;;;;;;1999.90;999.90;;;;;;;11.18;69.40;97753.44;5095276;28;20016;-86
2023/03/05 10:37:14;;;;;;;1999.90;999.90;;;;;;;12.02;65.07;97756.59;5095136;28;20040;-89
2023/03/05 10:39:49;;;;;;;1999.90;999.90;;;;;;;12.49;63.06;97746.94;5098293;28;20027;-90
2023/03/05 10:42:20;;;;;;;1999.90;999.90;;;;;;;12.27;62.66;97739.53;5113319;28;20039;-88
2023/03/05 10:44:54;;;;;;;1999.90;999.90;;;;;;;11.49;64.82;97742.66;5112348;28;20043;-87
2023/03/05 10:47:31;;;;;;;1999.90;999.90;;;;;;;11.11;64.69;97733.88;5113235;28;20099;-89
2023/03/05 10:49:58;;;;;;;1999.90;999.90;;;;;;;11.43;63.14;97721.97;5107755;28;20016;-93
2023/03/05 10:52:39;;;;;;;1999.90;999.90;;;;;;;11.90;61.32;97707.00;5127251;28;20040;-86
2023/03/05 10:55:16;;;;;;;1999.90;999.90;;;;;;;12.18;60.01;97711.25;5125394;28;20031;-89